sensor_id;sensor_type;location;lat;lon;timestamp;temperature;humidity
67196;DHT22;54122;53.538;49.366;2023-02-03T00:01:33;-2.30;86.80
67196;DHT22;54122;53.538;49.366;2023-02-03T00:04:00;-2.30;86.80
67196;DHT22;54122;53.538;49.366;2023-02-03T00:06:26;-2.40;86.70
67196;DHT22;54122;53.538;49.366;2023-02-03T00:08:54;-2.30;86.80
67196;DHT22;54122;53.538;49.366;2023-02-03T00:11:22;-2.30;86.70
67196;DHT22;54122;53.538;49.366;2023-02-03T00:13:48;-2.30;86.70
67196;DHT22;54122;53.538;49.366;2023-02-03T00:16:14;-2.30;86.50
67196;DHT22;54122;53.538;49.366;2023-02-03T00:18:40;-2.30;86.50
67196;DHT22;54122;53.538;49.366;2023-02-03T00:21:06;-2.30;86.50
67196;DHT22;54122;53.538;49.366;2023-02-03T00:23:33;-2.30;86.40
67196;DHT22;54122;53.538;49.366;2023-02-03T00:26:11;-2.20;86.10
67196;DHT22;54122;53.538;49.366;2023-02-03T00:28:38;-2.20;86.00
67196;DHT22;54122;53.538;49.366;2023-02-03T00:31:05;-2.20;85.90
67196;DHT22;54122;53.538;49.366;2023-02-03T00:33:31;-2.20;85.90
67196;DHT22;54122;53.538;49.366;2023-02-03T00:36:04;-2.20;85.60
67196;DHT22;54122;53.538;49.366;2023-02-03T00:38:30;-2.30;85.60
67196;DHT22;54122;53.538;49.366;2023-02-03T00:40:56;-2.30;85.60
67196;DHT22;54122;53.538;49.366;2023-02-03T00:43:22;-2.30;85.70
67196;DHT22;54122;53.538;49.366;2023-02-03T00:45:48;-2.30;85.70
67196;DHT22;54122;53.538;49.366;2023-02-03T00:48:15;-2.30;85.70
67196;DHT22;54122;53.538;49.366;2023-02-03T00:50:41;-2.40;85.70
67196;DHT22;54122;53.538;49.366;2023-02-03T00:53:07;-2.30;85.70
67196;DHT22;54122;53.538;49.366;2023-02-03T00:55:33;-2.30;85.60
67196;DHT22;54122;53.538;49.366;2023-02-03T00:57:59;-2.30;85.60
67196;DHT22;54122;53.538;49.366;2023-02-03T01:00:25;-2.30;85.40
67196;DHT22;54122;53.538;49.366;2023-02-03T01:02:51;-2.30;85.30
67196;DHT22;54122;53.538;49.366;2023-02-03T01:05:18;-2.30;85.20
67196;DHT22;54122;53.538;49.366;2023-02-03T01:07:44;-2.40;85.10
67196;DHT22;54122;53.538;49.366;2023-02-03T01:10:10;-2.40;85.10
67196;DHT22;54122;53.538;49.366;2023-02-03T01:12:36;-2.40;85.10
67196;DHT22;54122;53.538;49.366;2023-02-03T01:15:03;-2.40;85.10
67196;DHT22;54122;53.538;49.366;2023-02-03T01:17:29;-2.40;85.10
67196;DHT22;54122;53.538;49.366;2023-02-03T01:19:55;-2.40;85.10
67196;DHT22;54122;53.538;49.366;2023-02-03T01:22:21;-2.40;85.20
67196;DHT22;54122;53.538;49.366;2023-02-03T01:24:47;-2.40;85.10
67196;DHT22;54122;53.538;49.366;2023-02-03T01:27:14;-2.40;85.00
67196;DHT22;54122;53.538;49.366;2023-02-03T01:29:40;-2.50;85.00
67196;DHT22;54122;53.538;49.366;2023-02-03T01:32:06;-2.50;85.00
67196;DHT22;54122;53.538;49.366;2023-02-03T01:34:32;-2.50;85.10
67196;DHT22;54122;53.538;49.366;2023-02-03T01:36:58;-2.50;85.20
67196;DHT22;54122;53.538;49.366;2023-02-03T01:39:24;-2.50;85.20
67196;DHT22;54122;53.538;49.366;2023-02-03T01:41:54;-2.50;85.40
67196;DHT22;54122;53.538;49.366;2023-02-03T01:44:41;-2.50;85.40
67196;DHT22;54122;53.538;49.366;2023-02-03T01:49:44;-2.50;85.40
67196;DHT22;54122;53.538;49.366;2023-02-03T01:52:10;-2.50;85.40
67196;DHT22;54122;53.538;49.366;2023-02-03T01:54:39;-2.50;85.40
67196;DHT22;54122;53.538;49.366;2023-02-03T01:57:15;-2.50;85.50
67196;DHT22;54122;53.538;49.366;2023-02-03T01:59:43;-2.50;85.50
67196;DHT22;54122;53.538;49.366;2023-02-03T02:02:11;-2.50;85.70
67196;DHT22;54122;53.538;49.366;2023-02-03T02:05:02;-2.50;85.60
67196;DHT22;54122;53.538;49.366;2023-02-03T02:07:31;-2.50;85.60
67196;DHT22;54122;53.538;49.366;2023-02-03T02:09:58;-2.50;85.60
67196;DHT22;54122;53.538;49.366;2023-02-03T02:12:25;-2.50;85.70
67196;DHT22;54122;53.538;49.366;2023-02-03T02:14:51;-2.50;85.70
67196;DHT22;54122;53.538;49.366;2023-02-03T02:17:48;-2.50;85.90
67196;DHT22;54122;53.538;49.366;2023-02-03T02:29:44;-2.60;86.10
67196;DHT22;54122;53.538;49.366;2023-02-03T02:32:41;-2.60;86.20
67196;DHT22;54122;53.538;49.366;2023-02-03T02:37:48;-2.70;86.60
67196;DHT22;54122;53.538;49.366;2023-02-03T02:40:36;-2.70;86.80
67196;DHT22;54122;53.538;49.366;2023-02-03T02:45:45;-2.60;87.00
67196;DHT22;54122;53.538;49.366;2023-02-03T02:51:04;-2.60;86.90
67196;DHT22;54122;53.538;49.366;2023-02-03T02:53:34;-2.60;86.90
67196;DHT22;54122;53.538;49.366;2023-02-03T02:56:05;-2.60;86.90
67196;DHT22;54122;53.538;49.366;2023-02-03T02:58:34;-2.60;86.90
67196;DHT22;54122;53.538;49.366;2023-02-03T03:01:02;-2.60;86.90
67196;DHT22;54122;53.538;49.366;2023-02-03T03:03:28;-2.50;86.90
67196;DHT22;54122;53.538;49.366;2023-02-03T03:06:03;-2.60;86.90
67196;DHT22;54122;53.538;49.366;2023-02-03T03:11:06;-2.60;86.90
67196;DHT22;54122;53.538;49.366;2023-02-03T03:13:36;-2.60;86.90
67196;DHT22;54122;53.538;49.366;2023-02-03T03:16:04;-2.50;86.90
67196;DHT22;54122;53.538;49.366;2023-02-03T03:19:12;-2.50;87.00
67196;DHT22;54122;53.538;49.366;2023-02-03T03:21:36;-2.40;86.90
67196;DHT22;54122;53.538;49.366;2023-02-03T03:24:09;-2.40;87.10
67196;DHT22;54122;53.538;49.366;2023-02-03T03:32:00;-2.40;86.60
67196;DHT22;54122;53.538;49.366;2023-02-03T03:34:27;-2.40;86.60
67196;DHT22;54122;53.538;49.366;2023-02-03T03:37:02;-2.40;86.70
67196;DHT22;54122;53.538;49.366;2023-02-03T03:42:28;-2.40;86.50
67196;DHT22;54122;53.538;49.366;2023-02-03T03:45:21;-2.40;86.50
67196;DHT22;54122;53.538;49.366;2023-02-03T03:47:54;-2.50;86.20
67196;DHT22;54122;53.538;49.366;2023-02-03T03:50:29;-2.50;86.30
67196;DHT22;54122;53.538;49.366;2023-02-03T03:52:59;-2.50;86.30
67196;DHT22;54122;53.538;49.366;2023-02-03T03:55:29;-2.50;86.40
67196;DHT22;54122;53.538;49.366;2023-02-03T03:58:08;-2.50;86.30
67196;DHT22;54122;53.538;49.366;2023-02-03T04:00:37;-2.50;86.30
67196;DHT22;54122;53.538;49.366;2023-02-03T04:03:15;-2.50;86.30
67196;DHT22;54122;53.538;49.366;2023-02-03T04:05:41;-2.50;86.30
67196;DHT22;54122;53.538;49.366;2023-02-03T04:08:08;-2.50;86.30
67196;DHT22;54122;53.538;49.366;2023-02-03T04:10:37;-2.50;86.40
67196;DHT22;54122;53.538;49.366;2023-02-03T04:13:05;-2.50;86.30
67196;DHT22;54122;53.538;49.366;2023-02-03T04:15:32;-2.50;86.30
67196;DHT22;54122;53.538;49.366;2023-02-03T04:17:58;-2.50;86.30
67196;DHT22;54122;53.538;49.366;2023-02-03T04:20:27;-2.50;86.40
67196;DHT22;54122;53.538;49.366;2023-02-03T04:22:53;-2.50;86.40
67196;DHT22;54122;53.538;49.366;2023-02-03T04:25:20;-2.50;86.20
67196;DHT22;54122;53.538;49.366;2023-02-03T04:27:46;-2.50;86.20
67196;DHT22;54122;53.538;49.366;2023-02-03T04:30:13;-2.40;86.30
67196;DHT22;54122;53.538;49.366;2023-02-03T04:32:39;-2.40;86.40
67196;DHT22;54122;53.538;49.366;2023-02-03T04:35:06;-2.40;86.40
67196;DHT22;54122;53.538;49.366;2023-02-03T04:37:33;-2.40;86.40
67196;DHT22;54122;53.538;49.366;2023-02-03T04:39:59;-2.30;86.30
67196;DHT22;54122;53.538;49.366;2023-02-03T04:42:25;-2.30;86.20
67196;DHT22;54122;53.538;49.366;2023-02-03T04:44:52;-2.30;86.10
67196;DHT22;54122;53.538;49.366;2023-02-03T04:47:18;-2.30;86.00
67196;DHT22;54122;53.538;49.366;2023-02-03T04:49:44;-2.30;86.00
67196;DHT22;54122;53.538;49.366;2023-02-03T04:52:12;-2.20;86.00
67196;DHT22;54122;53.538;49.366;2023-02-03T04:54:38;-2.20;85.90
67196;DHT22;54122;53.538;49.366;2023-02-03T04:57:05;-2.10;85.80
67196;DHT22;54122;53.538;49.366;2023-02-03T04:59:31;-2.10;85.70
67196;DHT22;54122;53.538;49.366;2023-02-03T05:01:57;-2.20;85.50
67196;DHT22;54122;53.538;49.366;2023-02-03T05:04:23;-2.20;85.40
67196;DHT22;54122;53.538;49.366;2023-02-03T05:06:49;-2.20;85.40
67196;DHT22;54122;53.538;49.366;2023-02-03T05:09:16;-2.20;85.30
67196;DHT22;54122;53.538;49.366;2023-02-03T05:11:42;-2.10;85.30
67196;DHT22;54122;53.538;49.366;2023-02-03T05:14:08;-2.10;85.30
67196;DHT22;54122;53.538;49.366;2023-02-03T05:16:34;-2.10;85.30
67196;DHT22;54122;53.538;49.366;2023-02-03T05:19:00;-2.10;85.00
67196;DHT22;54122;53.538;49.366;2023-02-03T05:21:27;-2.00;84.70
67196;DHT22;54122;53.538;49.366;2023-02-03T05:23:53;-2.10;84.40
67196;DHT22;54122;53.538;49.366;2023-02-03T05:26:19;-2.10;84.40
67196;DHT22;54122;53.538;49.366;2023-02-03T05:28:45;-2.10;83.90
67196;DHT22;54122;53.538;49.366;2023-02-03T05:31:11;-2.10;83.90
67196;DHT22;54122;53.538;49.366;2023-02-03T05:33:37;-2.20;83.60
67196;DHT22;54122;53.538;49.366;2023-02-03T05:36:04;-2.20;83.60
67196;DHT22;54122;53.538;49.366;2023-02-03T05:38:30;-2.20;83.70
67196;DHT22;54122;53.538;49.366;2023-02-03T05:40:56;-2.10;83.60
67196;DHT22;54122;53.538;49.366;2023-02-03T05:43:40;-2.10;83.50
67196;DHT22;54122;53.538;49.366;2023-02-03T05:46:07;-2.10;83.20
67196;DHT22;54122;53.538;49.366;2023-02-03T05:48:33;-2.10;83.20
67196;DHT22;54122;53.538;49.366;2023-02-03T05:51:00;-2.00;83.30
67196;DHT22;54122;53.538;49.366;2023-02-03T05:53:26;-2.00;82.80
67196;DHT22;54122;53.538;49.366;2023-02-03T05:55:53;-2.00;82.60
67196;DHT22;54122;53.538;49.366;2023-02-03T05:58:19;-2.00;82.20
67196;DHT22;54122;53.538;49.366;2023-02-03T06:00:45;-1.90;82.10
67196;DHT22;54122;53.538;49.366;2023-02-03T06:03:12;-1.90;81.30
67196;DHT22;54122;53.538;49.366;2023-02-03T06:05:38;-1.80;81.00
67196;DHT22;54122;53.538;49.366;2023-02-03T06:08:07;-1.80;80.90
67196;DHT22;54122;53.538;49.366;2023-02-03T06:10:33;-1.70;80.50
67196;DHT22;54122;53.538;49.366;2023-02-03T06:13:06;-1.70;79.90
67196;DHT22;54122;53.538;49.366;2023-02-03T06:15:32;-1.70;79.30
67196;DHT22;54122;53.538;49.366;2023-02-03T06:17:58;-1.70;78.90
67196;DHT22;54122;53.538;49.366;2023-02-03T06:20:24;-1.70;78.40
67196;DHT22;54122;53.538;49.366;2023-02-03T06:22:50;-1.70;77.80
67196;DHT22;54122;53.538;49.366;2023-02-03T06:25:17;-1.70;77.20
67196;DHT22;54122;53.538;49.366;2023-02-03T06:27:43;-1.70;76.80
67196;DHT22;54122;53.538;49.366;2023-02-03T06:30:10;-1.70;76.70
67196;DHT22;54122;53.538;49.366;2023-02-03T06:32:36;-1.60;76.50
67196;DHT22;54122;53.538;49.366;2023-02-03T06:35:02;-1.60;75.70
67196;DHT22;54122;53.538;49.366;2023-02-03T06:37:29;-1.60;75.30
67196;DHT22;54122;53.538;49.366;2023-02-03T06:39:55;-1.60;74.60
67196;DHT22;54122;53.538;49.366;2023-02-03T06:42:21;-1.60;74.10
67196;DHT22;54122;53.538;49.366;2023-02-03T06:44:47;-1.60;73.50
67196;DHT22;54122;53.538;49.366;2023-02-03T06:47:13;-1.60;73.50
67196;DHT22;54122;53.538;49.366;2023-02-03T06:49:39;-1.70;73.10
67196;DHT22;54122;53.538;49.366;2023-02-03T06:52:05;-1.70;72.90
67196;DHT22;54122;53.538;49.366;2023-02-03T06:54:31;-1.60;72.80
67196;DHT22;54122;53.538;49.366;2023-02-03T06:56:58;-1.60;72.80
67196;DHT22;54122;53.538;49.366;2023-02-03T06:59:24;-1.50;72.60
67196;DHT22;54122;53.538;49.366;2023-02-03T07:01:50;-1.40;72.70
67196;DHT22;54122;53.538;49.366;2023-02-03T07:04:16;-1.30;72.30
67196;DHT22;54122;53.538;49.366;2023-02-03T07:06:42;-1.30;72.10
67196;DHT22;54122;53.538;49.366;2023-02-03T07:09:08;-1.20;71.90
67196;DHT22;54122;53.538;49.366;2023-02-03T07:11:34;-1.20;71.30
67196;DHT22;54122;53.538;49.366;2023-02-03T07:14:01;-1.30;70.70
67196;DHT22;54122;53.538;49.366;2023-02-03T07:16:27;-1.30;70.60
67196;DHT22;54122;53.538;49.366;2023-02-03T07:18:53;-1.30;71.10
67196;DHT22;54122;53.538;49.366;2023-02-03T07:21:19;-1.20;71.00
67196;DHT22;54122;53.538;49.366;2023-02-03T07:23:47;-1.20;70.70
67196;DHT22;54122;53.538;49.366;2023-02-03T07:26:13;-1.10;70.10
67196;DHT22;54122;53.538;49.366;2023-02-03T07:28:40;-1.10;69.50
67196;DHT22;54122;53.538;49.366;2023-02-03T07:31:06;-1.10;69.50
67196;DHT22;54122;53.538;49.366;2023-02-03T07:33:36;-1.00;70.30
67196;DHT22;54122;53.538;49.366;2023-02-03T07:36:03;-1.00;69.20
67196;DHT22;54122;53.538;49.366;2023-02-03T07:38:29;-1.10;69.20
67196;DHT22;54122;53.538;49.366;2023-02-03T07:40:55;-1.00;69.60
67196;DHT22;54122;53.538;49.366;2023-02-03T07:43:22;-1.10;69.40
67196;DHT22;54122;53.538;49.366;2023-02-03T07:45:48;-1.10;69.30
67196;DHT22;54122;53.538;49.366;2023-02-03T07:48:15;-1.20;69.40
67196;DHT22;54122;53.538;49.366;2023-02-03T07:50:41;-1.20;69.50
67196;DHT22;54122;53.538;49.366;2023-02-03T07:53:07;-1.20;69.60
67196;DHT22;54122;53.538;49.366;2023-02-03T07:55:39;-1.20;69.80
67196;DHT22;54122;53.538;49.366;2023-02-03T07:58:06;-1.10;69.90
67196;DHT22;54122;53.538;49.366;2023-02-03T08:00:33;-1.10;69.70
67196;DHT22;54122;53.538;49.366;2023-02-03T08:03:00;-1.10;69.50
67196;DHT22;54122;53.538;49.366;2023-02-03T08:05:27;-1.00;69.80
67196;DHT22;54122;53.538;49.366;2023-02-03T08:07:55;-0.90;69.60
67196;DHT22;54122;53.538;49.366;2023-02-03T08:10:22;-0.90;69.10
67196;DHT22;54122;53.538;49.366;2023-02-03T08:12:48;-0.80;69.00
67196;DHT22;54122;53.538;49.366;2023-02-03T08:15:14;-0.80;68.60
67196;DHT22;54122;53.538;49.366;2023-02-03T08:17:40;-0.80;68.10
67196;DHT22;54122;53.538;49.366;2023-02-03T08:20:10;-0.80;67.90
67196;DHT22;54122;53.538;49.366;2023-02-03T08:22:36;-0.80;67.90
67196;DHT22;54122;53.538;49.366;2023-02-03T08:25:03;-0.70;67.50
67196;DHT22;54122;53.538;49.366;2023-02-03T08:27:30;-0.70;67.40
67196;DHT22;54122;53.538;49.366;2023-02-03T08:29:58;-0.60;67.50
67196;DHT22;54122;53.538;49.366;2023-02-03T08:32:24;-0.60;67.10
67196;DHT22;54122;53.538;49.366;2023-02-03T08:34:51;-0.60;66.80
67196;DHT22;54122;53.538;49.366;2023-02-03T08:37:19;-0.60;66.50
67196;DHT22;54122;53.538;49.366;2023-02-03T08:39:46;-0.70;66.30
67196;DHT22;54122;53.538;49.366;2023-02-03T08:42:12;-0.70;66.70
67196;DHT22;54122;53.538;49.366;2023-02-03T08:44:39;-0.70;66.70
67196;DHT22;54122;53.538;49.366;2023-02-03T08:47:07;-0.60;66.50
67196;DHT22;54122;53.538;49.366;2023-02-03T08:49:33;-0.70;66.30
67196;DHT22;54122;53.538;49.366;2023-02-03T08:52:01;-0.70;66.30
67196;DHT22;54122;53.538;49.366;2023-02-03T08:54:27;-0.70;66.60
67196;DHT22;54122;53.538;49.366;2023-02-03T08:56:53;-0.70;66.60
67196;DHT22;54122;53.538;49.366;2023-02-03T08:59:19;-0.70;66.60
67196;DHT22;54122;53.538;49.366;2023-02-03T09:01:45;-0.70;67.50
67196;DHT22;54122;53.538;49.366;2023-02-03T09:04:14;-0.70;66.70
67196;DHT22;54122;53.538;49.366;2023-02-03T09:06:47;-0.70;66.90
67196;DHT22;54122;53.538;49.366;2023-02-03T09:09:14;-0.80;67.00
67196;DHT22;54122;53.538;49.366;2023-02-03T09:11:41;-0.80;66.70
67196;DHT22;54122;53.538;49.366;2023-02-03T09:14:08;-0.90;66.90
67196;DHT22;54122;53.538;49.366;2023-02-03T09:16:34;-1.00;67.10
67196;DHT22;54122;53.538;49.366;2023-02-03T09:19:01;-1.00;67.50
67196;DHT22;54122;53.538;49.366;2023-02-03T09:21:27;-1.00;67.80
67196;DHT22;54122;53.538;49.366;2023-02-03T09:23:53;-0.80;67.80
67196;DHT22;54122;53.538;49.366;2023-02-03T09:26:19;-0.70;67.70
67196;DHT22;54122;53.538;49.366;2023-02-03T09:28:45;-0.50;67.60
67196;DHT22;54122;53.538;49.366;2023-02-03T09:31:13;-0.50;67.20
67196;DHT22;54122;53.538;49.366;2023-02-03T09:33:42;-0.40;67.30
67196;DHT22;54122;53.538;49.366;2023-02-03T09:36:09;-0.30;67.20
67196;DHT22;54122;53.538;49.366;2023-02-03T09:38:36;-0.30;67.00
67196;DHT22;54122;53.538;49.366;2023-02-03T09:43:55;-0.30;67.00
67196;DHT22;54122;53.538;49.366;2023-02-03T09:46:33;-0.20;67.40
67196;DHT22;54122;53.538;49.366;2023-02-03T09:49:36;-0.30;67.40
67196;DHT22;54122;53.538;49.366;2023-02-03T09:54:46;-0.30;68.10
67196;DHT22;54122;53.538;49.366;2023-02-03T09:57:22;-0.40;68.40
67196;DHT22;54122;53.538;49.366;2023-02-03T09:59:49;-0.50;68.60
67196;DHT22;54122;53.538;49.366;2023-02-03T10:05:03;-0.60;68.90
67196;DHT22;54122;53.538;49.366;2023-02-03T10:18:20;-1.20;70.50
67196;DHT22;54122;53.538;49.366;2023-02-03T10:20:52;-1.20;70.70
67196;DHT22;54122;53.538;49.366;2023-02-03T10:23:34;-1.30;70.90
67196;DHT22;54122;53.538;49.366;2023-02-03T10:26:13;-1.40;71.40
67196;DHT22;54122;53.538;49.366;2023-02-03T10:28:54;-1.50;71.60
67196;DHT22;54122;53.538;49.366;2023-02-03T10:31:23;-1.60;72.10
67196;DHT22;54122;53.538;49.366;2023-02-03T10:34:01;-1.60;72.50
67196;DHT22;54122;53.538;49.366;2023-02-03T10:37:15;-1.50;72.60
67196;DHT22;54122;53.538;49.366;2023-02-03T10:39:47;-1.50;72.90
67196;DHT22;54122;53.538;49.366;2023-02-03T10:42:14;-1.60;73.00
67196;DHT22;54122;53.538;49.366;2023-02-03T10:44:55;-1.60;73.10
67196;DHT22;54122;53.538;49.366;2023-02-03T10:47:36;-1.60;73.40
67196;DHT22;54122;53.538;49.366;2023-02-03T10:50:05;-1.60;73.50
67196;DHT22;54122;53.538;49.366;2023-02-03T10:52:34;-1.60;73.70
67196;DHT22;54122;53.538;49.366;2023-02-03T10:55:06;-1.60;73.80
67196;DHT22;54122;53.538;49.366;2023-02-03T10:57:35;-1.60;73.60
67196;DHT22;54122;53.538;49.366;2023-02-03T11:03:25;-1.50;73.90
67196;DHT22;54122;53.538;49.366;2023-02-03T11:06:09;-1.50;73.60
67196;DHT22;54122;53.538;49.366;2023-02-03T11:08:38;-1.50;73.70
67196;DHT22;54122;53.538;49.366;2023-02-03T11:11:13;-1.40;73.60
67196;DHT22;54122;53.538;49.366;2023-02-03T11:13:40;-1.40;73.50
67196;DHT22;54122;53.538;49.366;2023-02-03T11:16:17;-1.50;73.40
67196;DHT22;54122;53.538;49.366;2023-02-03T11:21:21;-1.60;73.60
67196;DHT22;54122;53.538;49.366;2023-02-03T11:23:54;-1.70;73.90
67196;DHT22;54122;53.538;49.366;2023-02-03T11:26:39;-1.70;74.20
67196;DHT22;54122;53.538;49.366;2023-02-03T11:29:12;-1.60;74.30
67196;DHT22;54122;53.538;49.366;2023-02-03T11:31:46;-1.60;74.40
67196;DHT22;54122;53.538;49.366;2023-02-03T11:34:34;-1.70;74.20
67196;DHT22;54122;53.538;49.366;2023-02-03T11:37:31;-1.80;74.10
67196;DHT22;54122;53.538;49.366;2023-02-03T11:42:38;-1.90;74.60
67196;DHT22;54122;53.538;49.366;2023-02-03T11:45:25;-2.00;74.80
67196;DHT22;54122;53.538;49.366;2023-02-03T11:48:05;-2.00;75.00
67196;DHT22;54122;53.538;49.366;2023-02-03T11:50:40;-2.00;75.20
67196;DHT22;54122;53.538;49.366;2023-02-03T11:56:10;-2.00;75.60
67196;DHT22;54122;53.538;49.366;2023-02-03T11:59:02;-2.00;75.70
67196;DHT22;54122;53.538;49.366;2023-02-03T12:01:59;-2.00;75.60
67196;DHT22;54122;53.538;49.366;2023-02-03T12:21:03;-2.30;76.80
67196;DHT22;54122;53.538;49.366;2023-02-03T12:34:11;-2.40;76.90
67196;DHT22;54122;53.538;49.366;2023-02-03T12:39:51;-2.50;77.20
67196;DHT22;54122;53.538;49.366;2023-02-03T12:42:30;-2.40;77.50
67196;DHT22;54122;53.538;49.366;2023-02-03T12:45:17;-2.40;77.40
67196;DHT22;54122;53.538;49.366;2023-02-03T12:50:22;-2.60;77.40
67196;DHT22;54122;53.538;49.366;2023-02-03T12:58:39;-2.60;77.90
67196;DHT22;54122;53.538;49.366;2023-02-03T13:01:36;-2.60;78.10
67196;DHT22;54122;53.538;49.366;2023-02-03T13:09:46;-2.70;78.40
67196;DHT22;54122;53.538;49.366;2023-02-03T13:12:41;-2.80;78.50
67196;DHT22;54122;53.538;49.366;2023-02-03T13:18:22;-2.90;78.40
67196;DHT22;54122;53.538;49.366;2023-02-03T13:20:52;-2.90;78.60
67196;DHT22;54122;53.538;49.366;2023-02-03T13:23:19;-2.90;78.80
67196;DHT22;54122;53.538;49.366;2023-02-03T13:28:54;-3.00;79.10
67196;DHT22;54122;53.538;49.366;2023-02-03T13:31:54;-3.00;79.20
67196;DHT22;54122;53.538;49.366;2023-02-03T13:37:28;-3.00;79.40
67196;DHT22;54122;53.538;49.366;2023-02-03T13:42:31;-3.10;79.60
67196;DHT22;54122;53.538;49.366;2023-02-03T13:47:50;-3.10;79.90
67196;DHT22;54122;53.538;49.366;2023-02-03T13:50:28;-3.10;80.00
67196;DHT22;54122;53.538;49.366;2023-02-03T13:53:14;-3.10;80.00
67196;DHT22;54122;53.538;49.366;2023-02-03T13:56:01;-3.10;80.00
67196;DHT22;54122;53.538;49.366;2023-02-03T13:58:30;-3.10;80.00
67196;DHT22;54122;53.538;49.366;2023-02-03T14:01:01;-3.20;80.10
67196;DHT22;54122;53.538;49.366;2023-02-03T14:05:56;-3.20;80.40
67196;DHT22;54122;53.538;49.366;2023-02-03T14:22:06;-3.30;80.60
67196;DHT22;54122;53.538;49.366;2023-02-03T14:27:05;-3.30;80.70
67196;DHT22;54122;53.538;49.366;2023-02-03T14:29:41;-3.40;80.70
67196;DHT22;54122;53.538;49.366;2023-02-03T14:32:09;-3.40;80.70
67196;DHT22;54122;53.538;49.366;2023-02-03T14:39:59;-3.40;80.90
67196;DHT22;54122;53.538;49.366;2023-02-03T14:42:56;-3.40;81.00
67196;DHT22;54122;53.538;49.366;2023-02-03T14:48:45;-3.50;80.90
67196;DHT22;54122;53.538;49.366;2023-02-03T14:54:01;-3.50;81.20
67196;DHT22;54122;53.538;49.366;2023-02-03T14:59:52;-3.60;81.40
67196;DHT22;54122;53.538;49.366;2023-02-03T15:02:24;-3.60;82.50
67196;DHT22;54122;53.538;49.366;2023-02-03T15:13:05;-3.70;82.70
67196;DHT22;54122;53.538;49.366;2023-02-03T15:15:35;-3.80;81.70
67196;DHT22;54122;53.538;49.366;2023-02-03T15:18:21;-3.80;81.70
67196;DHT22;54122;53.538;49.366;2023-02-03T15:20:52;-3.80;81.80
67196;DHT22;54122;53.538;49.366;2023-02-03T15:25:45;-3.90;82.00
67196;DHT22;54122;53.538;49.366;2023-02-03T15:28:18;-3.90;82.10
67196;DHT22;54122;53.538;49.366;2023-02-03T15:30:46;-4.00;82.00
67196;DHT22;54122;53.538;49.366;2023-02-03T15:33:16;-4.00;82.10
67196;DHT22;54122;53.538;49.366;2023-02-03T15:35:48;-4.00;82.20
67196;DHT22;54122;53.538;49.366;2023-02-03T15:38:22;-4.00;82.20
67196;DHT22;54122;53.538;49.366;2023-02-03T15:40:54;-4.10;82.20
67196;DHT22;54122;53.538;49.366;2023-02-03T15:43:32;-4.10;82.20
67196;DHT22;54122;53.538;49.366;2023-02-03T15:46:18;-4.10;82.40
67196;DHT22;54122;53.538;49.366;2023-02-03T15:49:11;-4.10;82.30
67196;DHT22;54122;53.538;49.366;2023-02-03T15:51:58;-4.20;82.50
67196;DHT22;54122;53.538;49.366;2023-02-03T15:54:38;-4.20;82.50
67196;DHT22;54122;53.538;49.366;2023-02-03T15:59:54;-4.20;82.60
67196;DHT22;54122;53.538;49.366;2023-02-03T16:02:32;-4.20;82.70
67196;DHT22;54122;53.538;49.366;2023-02-03T16:05:04;-4.30;82.60
67196;DHT22;54122;53.538;49.366;2023-02-03T16:07:31;-4.30;82.60
67196;DHT22;54122;53.538;49.366;2023-02-03T16:09:58;-4.30;82.60
67196;DHT22;54122;53.538;49.366;2023-02-03T16:12:30;-4.30;82.70
67196;DHT22;54122;53.538;49.366;2023-02-03T16:14:58;-4.40;82.80
67196;DHT22;54122;53.538;49.366;2023-02-03T16:22:43;-4.50;82.70
67196;DHT22;54122;53.538;49.366;2023-02-03T16:25:25;-4.50;82.70
67196;DHT22;54122;53.538;49.366;2023-02-03T16:27:59;-4.60;82.70
67196;DHT22;54122;53.538;49.366;2023-02-03T16:33:45;-4.70;82.60
67196;DHT22;54122;53.538;49.366;2023-02-03T16:36:29;-4.80;82.60
67196;DHT22;54122;53.538;49.366;2023-02-03T16:39:14;-4.80;82.60
67196;DHT22;54122;53.538;49.366;2023-02-03T16:41:59;-4.90;82.70
67196;DHT22;54122;53.538;49.366;2023-02-03T16:44:45;-5.00;82.80
67196;DHT22;54122;53.538;49.366;2023-02-03T16:47:30;-5.00;83.40
67196;DHT22;54122;53.538;49.366;2023-02-03T16:50:20;-5.10;83.00
67196;DHT22;54122;53.538;49.366;2023-02-03T16:53:12;-5.10;83.10
67196;DHT22;54122;53.538;49.366;2023-02-03T16:55:39;-5.10;83.20
67196;DHT22;54122;53.538;49.366;2023-02-03T16:58:05;-5.10;83.30
67196;DHT22;54122;53.538;49.366;2023-02-03T17:00:31;-5.20;83.40
67196;DHT22;54122;53.538;49.366;2023-02-03T17:02:58;-5.20;83.30
67196;DHT22;54122;53.538;49.366;2023-02-03T17:05:27;-5.10;83.30
67196;DHT22;54122;53.538;49.366;2023-02-03T17:07:54;-5.20;83.30
67196;DHT22;54122;53.538;49.366;2023-02-03T17:10:20;-5.20;83.20
67196;DHT22;54122;53.538;49.366;2023-02-03T17:12:46;-5.20;83.00
67196;DHT22;54122;53.538;49.366;2023-02-03T17:15:12;-5.30;83.00
67196;DHT22;54122;53.538;49.366;2023-02-03T17:17:38;-5.30;83.10
67196;DHT22;54122;53.538;49.366;2023-02-03T17:20:05;-5.30;83.20
67196;DHT22;54122;53.538;49.366;2023-02-03T17:22:33;-5.30;83.20
67196;DHT22;54122;53.538;49.366;2023-02-03T17:24:59;-5.40;83.20
67196;DHT22;54122;53.538;49.366;2023-02-03T17:27:26;-5.40;83.10
67196;DHT22;54122;53.538;49.366;2023-02-03T17:29:52;-5.40;83.00
67196;DHT22;54122;53.538;49.366;2023-02-03T17:32:18;-5.50;83.00
67196;DHT22;54122;53.538;49.366;2023-02-03T17:34:45;-5.50;83.00
67196;DHT22;54122;53.538;49.366;2023-02-03T17:37:11;-5.50;83.10
67196;DHT22;54122;53.538;49.366;2023-02-03T17:39:37;-5.60;83.20
67196;DHT22;54122;53.538;49.366;2023-02-03T17:42:04;-5.60;83.20
67196;DHT22;54122;53.538;49.366;2023-02-03T17:44:32;-5.60;83.30
67196;DHT22;54122;53.538;49.366;2023-02-03T17:46:58;-5.70;83.30
67196;DHT22;54122;53.538;49.366;2023-02-03T17:49:24;-5.70;83.30
67196;DHT22;54122;53.538;49.366;2023-02-03T17:51:50;-5.70;83.30
67196;DHT22;54122;53.538;49.366;2023-02-03T17:54:17;-5.70;83.30
67196;DHT22;54122;53.538;49.366;2023-02-03T17:56:43;-5.80;83.20
67196;DHT22;54122;53.538;49.366;2023-02-03T17:59:12;-5.80;83.30
67196;DHT22;54122;53.538;49.366;2023-02-03T18:01:39;-5.80;83.40
67196;DHT22;54122;53.538;49.366;2023-02-03T18:04:05;-5.80;83.40
67196;DHT22;54122;53.538;49.366;2023-02-03T18:06:34;-5.80;83.40
67196;DHT22;54122;53.538;49.366;2023-02-03T18:09:02;-5.80;83.30
67196;DHT22;54122;53.538;49.366;2023-02-03T18:11:30;-5.90;83.20
67196;DHT22;54122;53.538;49.366;2023-02-03T18:13:56;-5.90;83.20
67196;DHT22;54122;53.538;49.366;2023-02-03T18:16:25;-5.90;83.30
67196;DHT22;54122;53.538;49.366;2023-02-03T18:18:55;-5.90;83.40
67196;DHT22;54122;53.538;49.366;2023-02-03T18:21:23;-5.90;83.40
67196;DHT22;54122;53.538;49.366;2023-02-03T18:23:50;-5.90;83.30
67196;DHT22;54122;53.538;49.366;2023-02-03T18:26:18;-5.90;83.30
67196;DHT22;54122;53.538;49.366;2023-02-03T18:28:44;-5.90;83.30
67196;DHT22;54122;53.538;49.366;2023-02-03T18:31:13;-5.90;83.20